createdAt,value
2017-08-18T00:00:01.197Z,77.30
2017-08-18T00:02:29.508Z,77.50
2017-08-18T00:04:57.800Z,77.10
2017-08-18T00:07:26.121Z,77.50
2017-08-18T00:09:54.421Z,78.00
2017-08-18T00:12:22.798Z,78.70
2017-08-18T00:14:51.099Z,79.00
2017-08-18T00:17:19.457Z,79.60
2017-08-18T00:19:47.746Z,79.50
2017-08-18T00:22:16.041Z,79.50
2017-08-18T00:24:44.378Z,80.10
2017-08-18T00:27:12.714Z,79.80
2017-08-18T00:29:41.245Z,79.40
2017-08-18T00:32:09.548Z,78.70
2017-08-18T00:34:37.874Z,77.70
2017-08-18T00:37:06.205Z,77.80
2017-08-18T00:39:34.509Z,77.60
2017-08-18T00:42:02.833Z,78.30
2017-08-18T00:44:31.227Z,78.60
2017-08-18T00:46:59.554Z,78.70
2017-08-18T00:49:27.969Z,79.40
2017-08-18T00:51:56.309Z,79.50
2017-08-18T00:54:24.889Z,79.30
2017-08-18T00:56:53.209Z,79.60
2017-08-18T00:59:21.521Z,80.40
2017-08-18T01:01:49.872Z,80.70
2017-08-18T01:04:18.172Z,80.80
2017-08-18T01:06:46.473Z,81.30
2017-08-18T01:09:14.820Z,81.30
2017-08-18T01:11:43.136Z,81.40
2017-08-18T01:14:11.489Z,82.00
2017-08-18T01:16:39.842Z,81.80
2017-08-18T01:19:08.172Z,81.70
2017-08-18T01:21:36.498Z,81.80
2017-08-18T01:24:04.808Z,81.40
2017-08-18T01:26:33.134Z,81.20
2017-08-18T01:29:01.425Z,81.00
2017-08-18T01:31:29.756Z,81.10
2017-08-18T01:33:58.054Z,81.30
2017-08-18T01:36:26.493Z,81.50
2017-08-18T01:38:54.828Z,81.60
2017-08-18T01:41:23.141Z,81.70
2017-08-18T01:43:51.501Z,82.50
2017-08-18T01:46:19.902Z,81.50
2017-08-18T01:48:48.242Z,81.50
2017-08-18T01:51:16.547Z,81.30
2017-08-18T01:53:44.836Z,81.30
2017-08-18T01:56:13.186Z,82.20
2017-08-18T01:58:41.485Z,81.90
2017-08-18T02:01:09.813Z,81.80
2017-08-18T02:03:38.153Z,81.60
2017-08-18T02:06:06.530Z,82.20
2017-08-18T02:08:34.874Z,81.30
2017-08-18T02:11:03.190Z,80.90
2017-08-18T02:13:31.492Z,81.10
2017-08-18T02:15:59.843Z,81.00
2017-08-18T02:18:28.377Z,80.90
2017-08-18T02:20:56.753Z,80.80
2017-08-18T02:23:25.157Z,81.10
2017-08-18T02:25:53.514Z,81.60
2017-08-18T02:28:21.850Z,82.00
2017-08-18T02:30:50.164Z,82.20
2017-08-18T02:33:18.461Z,82.60
2017-08-18T02:35:46.793Z,83.10
2017-08-18T02:38:15.128Z,83.50
2017-08-18T02:40:43.431Z,84.10
2017-08-18T02:43:11.753Z,83.50
2017-08-18T02:45:40.049Z,84.20
2017-08-18T02:48:08.369Z,83.20
2017-08-18T02:50:36.727Z,83.80
2017-08-18T02:53:05.024Z,83.10
2017-08-18T02:55:33.509Z,83.70
2017-08-18T02:58:01.808Z,84.00
2017-08-18T03:00:30.109Z,83.90
2017-08-18T03:02:58.449Z,83.50
2017-08-18T03:05:26.752Z,83.20
2017-08-18T03:07:55.053Z,83.40
2017-08-18T03:10:23.375Z,83.90
2017-08-18T03:12:51.693Z,82.40
2017-08-18T03:15:20.020Z,83.40
2017-08-18T03:17:48.315Z,83.80
2017-08-18T03:20:16.613Z,84.00
2017-08-18T03:22:44.936Z,84.70
2017-08-18T03:25:13.288Z,84.20
2017-08-18T03:27:41.624Z,83.00
2017-08-18T03:30:09.952Z,83.00
2017-08-18T03:32:38.258Z,83.00
2017-08-18T03:35:06.588Z,83.00
2017-08-18T03:37:34.878Z,83.50
2017-08-18T03:40:03.193Z,83.20
2017-08-18T03:42:31.517Z,83.10
2017-08-18T03:44:59.811Z,82.80
2017-08-18T03:47:28.217Z,83.70
2017-08-18T03:49:56.554Z,82.10
2017-08-18T03:52:24.860Z,82.20
2017-08-18T03:54:53.163Z,82.60
2017-08-18T03:57:21.476Z,83.00
2017-08-18T03:59:49.801Z,82.00
2017-08-18T04:02:18.089Z,82.30
2017-08-18T04:04:46.373Z,82.70
2017-08-18T04:07:14.714Z,82.80
2017-08-18T04:09:43.005Z,82.90
2017-08-18T04:12:11.370Z,81.90
2017-08-18T04:14:39.680Z,82.00
2017-08-18T04:17:07.976Z,82.80
2017-08-18T04:19:36.372Z,83.20
2017-08-18T04:22:04.730Z,83.60
2017-08-18T04:24:33.049Z,83.80
2017-08-18T04:27:01.377Z,84.60
2017-08-18T04:29:29.745Z,84.20
2017-08-18T04:31:58.044Z,84.50
2017-08-18T04:34:26.416Z,84.80
2017-08-18T04:36:54.725Z,85.30
2017-08-18T04:39:23.049Z,85.40
2017-08-18T04:41:51.366Z,85.40
2017-08-18T04:44:19.739Z,85.00
2017-08-18T04:46:48.042Z,84.50
2017-08-18T04:49:16.339Z,84.50
2017-08-18T04:51:44.668Z,84.30
2017-08-18T04:54:13.000Z,84.30
2017-08-18T04:56:41.324Z,84.10
2017-08-18T04:59:09.635Z,84.10
2017-08-18T05:01:38.009Z,84.50
2017-08-18T05:04:06.336Z,84.20
2017-08-18T05:06:34.624Z,84.00
2017-08-18T05:09:02.953Z,83.80
2017-08-18T05:11:31.268Z,82.80
2017-08-18T05:13:59.585Z,81.90
2017-08-18T05:16:27.922Z,80.70
2017-08-18T05:18:56.245Z,81.10
2017-08-18T05:21:24.574Z,81.00
2017-08-18T05:23:52.861Z,80.80
2017-08-18T05:26:21.185Z,80.70
2017-08-18T05:28:49.472Z,80.50
2017-08-18T05:31:17.833Z,80.60
2017-08-18T05:33:46.225Z,80.00
2017-08-18T05:36:14.750Z,80.10
2017-08-18T05:38:43.117Z,80.30
2017-08-18T05:41:11.501Z,80.90
2017-08-18T05:43:39.837Z,81.40
2017-08-18T05:46:08.141Z,81.80
2017-08-18T05:48:36.469Z,81.50
2017-08-18T05:51:05.486Z,81.70
2017-08-18T05:53:33.806Z,82.40
2017-08-18T05:56:02.168Z,82.60
2017-08-18T05:58:30.473Z,82.40
2017-08-18T06:00:58.901Z,81.90
2017-08-18T06:03:27.229Z,81.10
2017-08-18T06:05:55.525Z,79.50
2017-08-18T06:08:23.843Z,78.60
2017-08-18T06:10:52.133Z,76.70
2017-08-18T06:13:20.453Z,75.80
2017-08-18T06:15:48.772Z,71.30
2017-08-18T06:18:17.070Z,69.20
2017-08-18T06:20:45.393Z,68.20
2017-08-18T06:23:13.677Z,66.60
2017-08-18T06:25:41.970Z,67.40
2017-08-18T06:28:10.304Z,68.00
2017-08-18T06:30:38.600Z,68.40
2017-08-18T06:33:06.966Z,68.80
2017-08-18T06:35:35.486Z,69.40
2017-08-18T06:38:03.800Z,70.10
2017-08-18T06:40:32.100Z,68.80
2017-08-18T06:43:01.765Z,69.10
2017-08-18T06:45:30.133Z,69.40
2017-08-18T06:47:59.300Z,69.30
2017-08-18T06:50:27.653Z,69.30
2017-08-18T06:52:55.960Z,69.90
2017-08-18T06:55:24.283Z,69.50
2017-08-18T06:57:52.596Z,70.80
2017-08-18T07:00:20.942Z,70.90
2017-08-18T07:02:49.242Z,71.80
2017-08-18T07:05:17.536Z,70.90
2017-08-18T07:07:45.873Z,70.50
2017-08-18T07:10:14.171Z,72.00
2017-08-18T07:12:42.487Z,70.10
2017-08-18T07:15:10.769Z,70.10
2017-08-18T07:17:39.096Z,69.50
2017-08-18T07:20:07.425Z,68.50
2017-08-18T07:22:35.769Z,67.80
2017-08-18T07:25:04.072Z,66.20
2017-08-18T07:27:32.410Z,65.40
2017-08-18T07:30:00.816Z,65.30
2017-08-18T07:32:29.212Z,65.90
2017-08-18T07:34:57.685Z,65.80
2017-08-18T07:37:26.017Z,66.90
2017-08-18T07:39:54.323Z,67.50
2017-08-18T07:42:22.648Z,69.00
2017-08-18T07:44:50.933Z,69.40
2017-08-18T07:47:19.247Z,70.10
2017-08-18T07:49:47.656Z,71.10
2017-08-18T07:52:15.967Z,71.00
2017-08-18T07:54:44.267Z,70.30
2017-08-18T07:57:12.600Z,70.40
2017-08-18T07:59:40.927Z,70.60
2017-08-18T08:02:09.245Z,71.00
2017-08-18T08:04:37.545Z,71.50
2017-08-18T08:07:05.881Z,72.70
2017-08-18T08:09:34.405Z,73.50
2017-08-18T08:12:02.777Z,74.20
2017-08-18T08:14:31.229Z,74.90
2017-08-18T08:16:59.531Z,73.50
2017-08-18T08:19:27.849Z,73.70
2017-08-18T08:21:56.137Z,74.70
2017-08-18T08:24:24.533Z,73.40
2017-08-18T08:26:52.945Z,72.80
2017-08-18T08:29:21.248Z,72.80
2017-08-18T08:31:49.593Z,73.50
2017-08-18T08:34:17.891Z,72.40
2017-08-18T08:36:46.211Z,74.10
2017-08-18T08:39:14.543Z,73.60
2017-08-18T08:41:42.828Z,75.70
2017-08-18T08:44:11.158Z,72.40
2017-08-18T08:46:39.489Z,68.50
2017-08-18T08:49:07.805Z,68.50
2017-08-18T08:51:36.117Z,70.20
2017-08-18T08:54:04.433Z,71.90
2017-08-18T08:56:32.768Z,71.90
2017-08-18T08:59:01.068Z,70.30
2017-08-18T09:01:29.416Z,66.40
2017-08-18T09:03:57.717Z,64.50
2017-08-18T09:06:26.032Z,63.10
2017-08-18T09:08:54.348Z,62.30
2017-08-18T09:11:22.697Z,61.00
2017-08-18T09:13:50.986Z,62.10
2017-08-18T09:16:19.281Z,62.20
2017-08-18T09:18:47.616Z,63.20
2017-08-18T09:21:15.933Z,62.70
2017-08-18T09:23:44.279Z,60.30
2017-08-18T09:26:12.576Z,59.40
2017-08-18T09:28:40.872Z,59.70
2017-08-18T09:31:09.209Z,59.40
2017-08-18T09:33:37.521Z,58.90
2017-08-18T09:36:05.892Z,60.60
2017-08-18T09:38:34.266Z,61.80
2017-08-18T09:41:02.558Z,62.70
2017-08-18T09:43:30.841Z,63.30
2017-08-18T09:45:59.164Z,64.00
2017-08-18T09:48:45.132Z,64.70
2017-08-18T10:04:47.142Z,65.90
2017-08-18T10:07:15.466Z,67.00
2017-08-18T10:09:43.762Z,65.90
2017-08-18T10:12:12.117Z,66.00
2017-08-18T10:14:40.407Z,65.00
2017-08-18T10:17:08.729Z,66.90
2017-08-18T10:19:37.309Z,67.50
2017-08-18T10:22:05.665Z,66.80
2017-08-18T10:24:33.982Z,67.30
2017-08-18T10:27:02.323Z,67.60
2017-08-18T10:29:30.680Z,66.30
2017-08-18T10:31:58.977Z,65.70
2017-08-18T10:34:27.270Z,64.70
2017-08-18T10:36:55.621Z,62.00
2017-08-18T10:39:23.982Z,61.90
2017-08-18T10:41:52.305Z,62.30
2017-08-18T10:44:20.641Z,61.70
2017-08-18T10:46:49.007Z,60.50
2017-08-18T10:49:17.322Z,57.10
2017-08-18T10:51:45.718Z,56.30
2017-08-18T10:54:14.025Z,57.00
2017-08-18T10:56:42.321Z,56.90
2017-08-18T10:59:11.208Z,57.20
2017-08-18T11:01:39.542Z,55.30
2017-08-18T11:04:07.845Z,55.20
2017-08-18T11:06:36.169Z,56.20
2017-08-18T11:09:04.457Z,58.30
2017-08-18T11:11:32.742Z,57.70
2017-08-18T11:14:01.062Z,57.40
2017-08-18T11:16:29.345Z,55.80
2017-08-18T11:18:57.657Z,54.70
2017-08-18T11:21:25.945Z,52.00
2017-08-18T11:23:54.339Z,51.70
2017-08-18T11:26:22.625Z,51.70
2017-08-18T11:28:50.918Z,53.70
2017-08-18T11:31:19.236Z,53.70
2017-08-18T11:33:47.537Z,53.40
2017-08-18T11:36:15.860Z,55.30
2017-08-18T11:38:44.182Z,52.60
2017-08-18T11:41:12.495Z,52.70
2017-08-18T11:43:40.828Z,52.80
2017-08-18T11:46:09.141Z,51.90
2017-08-18T11:48:37.505Z,52.50
2017-08-18T11:51:05.795Z,53.60
2017-08-18T11:53:34.086Z,53.40
2017-08-18T11:56:02.407Z,54.00
2017-08-18T11:58:30.768Z,54.40
2017-08-18T12:00:59.084Z,55.60
2017-08-18T12:03:27.369Z,56.60
2017-08-18T12:05:55.808Z,56.80
2017-08-18T12:08:24.094Z,56.80
2017-08-18T12:10:52.437Z,56.00
2017-08-18T12:13:20.725Z,56.30
2017-08-18T12:15:49.082Z,55.90
2017-08-18T12:18:17.428Z,56.60
2017-08-18T12:20:45.745Z,56.80
2017-08-18T12:23:14.032Z,55.60
2017-08-18T12:25:42.353Z,54.50
2017-08-18T12:28:10.688Z,55.10
2017-08-18T12:30:38.985Z,55.20
2017-08-18T12:33:07.306Z,55.60
2017-08-18T12:35:35.672Z,54.80
2017-08-18T12:38:03.956Z,55.60
2017-08-18T12:40:32.285Z,55.60
2017-08-18T12:43:00.634Z,54.80
2017-08-18T12:45:28.926Z,55.20
2017-08-18T12:47:57.240Z,54.60
2017-08-18T12:50:25.588Z,56.30
2017-08-18T12:52:53.877Z,55.00
2017-08-18T12:55:22.170Z,54.10
2017-08-18T12:57:50.497Z,53.80
2017-08-18T13:00:18.810Z,54.10
2017-08-18T13:02:47.116Z,51.90
2017-08-18T13:05:15.453Z,52.00
2017-08-18T13:07:43.769Z,50.60
2017-08-18T13:10:12.092Z,51.90
2017-08-18T13:12:40.408Z,50.40
2017-08-18T13:15:08.684Z,50.40
2017-08-18T13:17:37.074Z,50.30
2017-08-18T13:20:05.393Z,51.50
2017-08-18T13:22:34.737Z,50.80
2017-08-18T13:25:03.049Z,50.40
2017-08-18T13:27:31.366Z,48.50
2017-08-18T13:29:59.657Z,50.50
2017-08-18T13:32:27.981Z,50.10
2017-08-18T13:34:56.292Z,50.50
2017-08-18T13:37:24.625Z,50.40
2017-08-18T13:39:53.012Z,49.80
2017-08-18T13:42:21.410Z,49.90
2017-08-18T13:44:49.725Z,51.00
2017-08-18T13:47:18.017Z,50.20
2017-08-18T13:49:46.392Z,49.40
2017-08-18T13:52:14.672Z,50.00
2017-08-18T13:54:42.994Z,49.60
2017-08-18T13:57:11.318Z,49.60
2017-08-18T13:59:39.638Z,50.10
2017-08-18T14:02:07.954Z,50.00
2017-08-18T14:04:36.269Z,50.50
2017-08-18T14:07:04.624Z,50.30
2017-08-18T14:09:32.924Z,51.00
2017-08-18T14:12:01.218Z,50.30
2017-08-18T14:14:29.570Z,50.60
2017-08-18T14:16:57.909Z,52.10
2017-08-18T14:19:26.229Z,55.90
2017-08-18T14:21:54.522Z,56.20
2017-08-18T14:24:22.885Z,56.70
2017-08-18T14:26:56.716Z,56.30
2017-08-18T14:29:25.032Z,56.50
2017-08-18T14:31:53.360Z,58.00
2017-08-18T14:34:21.650Z,59.70
2017-08-18T14:36:49.933Z,60.80
2017-08-18T14:39:18.262Z,62.10
2017-08-18T14:41:46.553Z,62.50
2017-08-18T14:44:14.857Z,66.80
2017-08-18T14:46:43.210Z,65.60
2017-08-18T14:49:11.497Z,68.30
2017-08-18T14:51:40.078Z,71.80
2017-08-18T14:54:08.372Z,79.30
2017-08-18T14:56:36.652Z,90.60
2017-08-18T14:59:04.974Z,94.10
2017-08-18T15:01:33.373Z,99.90
2017-08-18T15:04:01.668Z,99.90
2017-08-18T15:06:29.982Z,99.90
2017-08-18T15:08:58.297Z,99.90
2017-08-18T15:11:26.594Z,99.90
2017-08-18T15:13:54.922Z,99.90
2017-08-18T15:16:23.260Z,99.90
2017-08-18T15:18:51.549Z,99.90
2017-08-18T15:21:19.884Z,99.90
2017-08-18T15:23:48.170Z,99.90
2017-08-18T15:26:16.464Z,99.90
2017-08-18T15:28:44.799Z,99.90
2017-08-18T15:31:13.117Z,99.90
2017-08-18T15:36:52.477Z,99.90
2017-08-18T15:39:20.830Z,99.90
2017-08-18T15:41:49.113Z,99.90
2017-08-18T15:44:17.424Z,99.90
2017-08-18T15:46:45.788Z,99.90
2017-08-18T15:49:14.111Z,99.90
2017-08-18T15:51:42.428Z,99.90
2017-08-18T15:54:10.740Z,99.90
2017-08-18T15:56:39.051Z,99.90
2017-08-18T15:59:07.405Z,99.90
2017-08-18T16:01:35.706Z,99.90
2017-08-18T16:04:04.024Z,99.90
2017-08-18T16:06:32.357Z,99.90
2017-08-18T16:09:00.662Z,99.90
2017-08-18T16:11:29.022Z,99.90
2017-08-18T16:13:57.308Z,99.90
2017-08-18T16:16:25.600Z,99.90
2017-08-18T16:18:53.936Z,99.90
2017-08-18T16:21:22.277Z,98.50
2017-08-18T16:23:50.569Z,93.80
2017-08-18T16:26:18.902Z,98.40
2017-08-18T16:28:47.255Z,99.90
2017-08-18T16:31:15.587Z,93.90
2017-08-18T16:33:43.884Z,99.90
2017-08-18T16:36:12.190Z,99.90
2017-08-18T16:38:40.517Z,99.90
2017-08-18T16:41:08.823Z,99.90
2017-08-18T16:43:37.151Z,99.90
2017-08-18T16:46:05.494Z,99.90
2017-08-18T16:48:33.785Z,99.90
2017-08-18T16:51:02.082Z,99.90
2017-08-18T16:53:30.425Z,99.90
2017-08-18T16:55:58.751Z,99.90
2017-08-18T16:58:27.074Z,99.90
2017-08-18T17:00:55.400Z,99.90
2017-08-18T17:03:23.762Z,99.90
2017-08-18T17:05:52.080Z,99.90
2017-08-18T17:08:20.397Z,99.90
2017-08-18T17:10:55.317Z,99.90
2017-08-18T17:13:23.646Z,99.90
2017-08-18T17:15:51.963Z,99.90
2017-08-18T17:18:20.317Z,99.90
2017-08-18T17:20:48.641Z,99.90
2017-08-18T17:23:16.982Z,99.90
2017-08-18T17:25:45.282Z,99.90
2017-08-18T17:28:13.578Z,99.90
2017-08-18T17:30:41.908Z,99.90
2017-08-18T17:33:10.229Z,99.90
2017-08-18T17:35:38.561Z,99.90
2017-08-18T17:38:06.869Z,99.90
2017-08-18T17:40:35.197Z,99.90
2017-08-18T17:43:03.503Z,99.90
2017-08-18T17:45:31.801Z,99.90
2017-08-18T17:48:00.126Z,99.90
2017-08-18T17:50:28.513Z,99.90
2017-08-18T17:52:56.853Z,99.90
2017-08-18T17:55:25.154Z,99.90
2017-08-18T17:57:53.481Z,99.90
2017-08-18T18:00:21.825Z,99.90
2017-08-18T18:02:50.194Z,99.90
2017-08-18T18:05:18.545Z,99.90
2017-08-18T18:07:46.843Z,99.90
2017-08-18T18:10:15.187Z,99.90
2017-08-18T18:12:43.481Z,99.90
2017-08-18T18:15:11.778Z,99.90
2017-08-18T18:17:40.113Z,99.90
2017-08-18T18:20:08.436Z,99.90
2017-08-18T18:22:36.774Z,99.90
2017-08-18T18:25:05.106Z,99.90
2017-08-18T18:30:43.632Z,99.90
2017-08-18T18:33:17.319Z,99.90
2017-08-18T18:49:10.490Z,99.90
2017-08-18T18:51:38.868Z,99.90
2017-08-18T18:54:07.258Z,99.90
2017-08-18T18:56:35.650Z,99.90
2017-08-18T18:59:04.010Z,99.90
2017-08-18T19:01:32.341Z,99.90
2017-08-18T19:04:00.673Z,99.90
2017-08-18T19:06:28.964Z,99.90
2017-08-18T19:08:57.254Z,99.90
2017-08-18T19:11:25.580Z,99.90
2017-08-18T19:13:53.873Z,99.90
2017-08-18T19:16:22.202Z,99.90
2017-08-18T19:18:50.521Z,98.90
2017-08-18T19:21:18.861Z,99.90
2017-08-18T19:23:47.148Z,99.90
2017-08-18T19:26:15.549Z,99.20
2017-08-18T19:28:43.844Z,99.90
2017-08-18T19:31:12.183Z,99.40
2017-08-18T19:33:40.500Z,99.90
2017-08-18T19:36:08.802Z,99.90
2017-08-18T19:38:37.140Z,99.90
2017-08-18T19:41:05.828Z,99.90
2017-08-18T19:43:34.170Z,99.90
2017-08-18T19:46:02.683Z,99.90
2017-08-18T19:48:31.002Z,99.90
2017-08-18T19:50:59.327Z,99.90
2017-08-18T19:53:27.627Z,99.90
2017-08-18T19:55:55.940Z,99.90
2017-08-18T19:58:24.317Z,99.70
2017-08-18T20:00:52.633Z,99.90
2017-08-18T20:03:20.929Z,99.60
2017-08-18T20:05:49.270Z,99.10
2017-08-18T20:08:17.568Z,99.30
2017-08-18T20:10:45.862Z,99.90
2017-08-18T20:13:14.199Z,99.80
2017-08-18T20:15:42.734Z,99.20
2017-08-18T20:18:11.236Z,99.90
2017-08-18T20:20:39.572Z,99.80
2017-08-18T20:23:07.954Z,99.40
2017-08-18T20:25:37.312Z,97.20
2017-08-18T20:28:05.832Z,99.90
2017-08-18T20:30:35.561Z,99.90
2017-08-18T20:33:03.913Z,99.90
2017-08-18T20:35:32.262Z,99.90
2017-08-18T20:38:00.557Z,99.90
2017-08-18T20:40:28.884Z,99.90
2017-08-18T20:42:57.189Z,99.90
2017-08-18T20:45:25.513Z,99.90
2017-08-18T20:47:53.860Z,99.90
2017-08-18T20:50:22.157Z,99.90
2017-08-18T20:52:50.454Z,99.90
2017-08-18T20:55:18.781Z,99.90
2017-08-18T20:57:47.168Z,99.90
2017-08-18T21:00:15.467Z,99.90
2017-08-18T21:02:43.909Z,99.90
2017-08-18T21:05:12.254Z,99.90
2017-08-18T21:07:40.597Z,99.80
2017-08-18T21:10:08.892Z,99.90
2017-08-18T21:12:37.232Z,99.90
2017-08-18T21:15:05.634Z,98.80
2017-08-18T21:17:33.950Z,98.10
2017-08-18T21:20:02.256Z,99.90
2017-08-18T21:22:30.612Z,97.50
2017-08-18T21:24:58.962Z,99.90
2017-08-18T21:27:27.248Z,98.00
2017-08-18T21:29:55.595Z,97.80
2017-08-18T21:32:23.931Z,96.40
2017-08-18T21:34:52.253Z,96.30
2017-08-18T21:37:20.551Z,99.90
2017-08-18T21:39:48.886Z,97.30
2017-08-18T21:42:17.257Z,97.80
2017-08-18T21:44:45.581Z,99.90
2017-08-18T21:47:13.913Z,99.90
2017-08-18T21:49:42.225Z,99.90
2017-08-18T21:52:10.526Z,99.90
2017-08-18T21:54:38.852Z,99.90
2017-08-18T21:57:07.170Z,99.90
2017-08-18T21:59:35.456Z,99.90
2017-08-18T22:02:03.776Z,99.90
2017-08-18T22:04:32.092Z,99.90
2017-08-18T22:07:00.406Z,99.90
2017-08-18T22:09:28.787Z,98.20
2017-08-18T22:11:57.088Z,99.90
2017-08-18T22:14:25.450Z,99.90
2017-08-18T22:16:53.811Z,99.90
2017-08-18T22:19:22.110Z,99.90
2017-08-18T22:21:50.433Z,99.90
2017-08-18T22:24:18.766Z,99.90
2017-08-18T22:26:47.065Z,99.90
2017-08-18T22:29:15.384Z,99.90
2017-08-18T22:31:43.952Z,99.90
2017-08-18T22:34:12.254Z,99.90
2017-08-18T22:36:40.581Z,99.90
2017-08-18T22:39:08.897Z,99.90
2017-08-18T22:41:37.217Z,99.90
2017-08-18T22:44:05.562Z,99.90
2017-08-18T22:46:33.884Z,98.70
2017-08-18T22:49:02.214Z,99.90
2017-08-18T22:51:30.517Z,99.90
2017-08-18T22:53:58.849Z,99.90
2017-08-18T22:56:27.145Z,99.90
2017-08-18T22:58:55.439Z,99.90
2017-08-18T23:01:23.770Z,99.90
2017-08-18T23:03:52.066Z,99.90
2017-08-18T23:06:20.357Z,99.90
2017-08-18T23:08:48.700Z,99.90
2017-08-18T23:11:16.996Z,99.90
2017-08-18T23:13:45.644Z,99.90
2017-08-18T23:16:13.961Z,99.90
2017-08-18T23:18:42.271Z,99.90
2017-08-18T23:21:10.653Z,99.90
2017-08-18T23:23:38.971Z,99.90
2017-08-18T23:26:07.265Z,99.90
2017-08-18T23:28:35.586Z,99.90
2017-08-18T23:31:04.134Z,99.90
2017-08-18T23:33:32.481Z,98.00
2017-08-18T23:36:00.781Z,98.00
2017-08-18T23:38:29.103Z,99.90
2017-08-18T23:40:57.394Z,99.90
2017-08-18T23:43:25.708Z,98.50
2017-08-18T23:45:54.001Z,97.90
2017-08-18T23:48:22.327Z,99.90
2017-08-18T23:50:50.670Z,99.90
2017-08-18T23:53:18.992Z,97.30
2017-08-18T23:55:47.281Z,95.60
2017-08-18T23:58:15.612Z,99.90
